sensor_id;sensor_type;location;lat;lon;timestamp;P1;durP1;ratioP1;P2;durP2;ratioP2
19804;SDS011;10062;51.052;13.756;2023-03-01T00:00:05;103.90;;;44.90;;
19804;SDS011;10062;51.052;13.756;2023-03-01T00:02:41;50.33;;;23.57;;
19804;SDS011;10062;51.052;13.756;2023-03-01T00:05:13;34.47;;;17.30;;
19804;SDS011;10062;51.052;13.756;2023-03-01T00:07:46;37.90;;;19.30;;
19804;SDS011;10062;51.052;13.756;2023-03-01T00:10:17;34.77;;;17.20;;
19804;SDS011;10062;51.052;13.756;2023-03-01T00:12:49;37.50;;;19.13;;
19804;SDS011;10062;51.052;13.756;2023-03-01T00:15:21;35.67;;;17.87;;
19804;SDS011;10062;51.052;13.756;2023-03-01T00:17:52;32.90;;;17.37;;
19804;SDS011;10062;51.052;13.756;2023-03-01T00:20:24;35.50;;;18.97;;
19804;SDS011;10062;51.052;13.756;2023-03-01T00:22:57;33.60;;;17.33;;
19804;SDS011;10062;51.052;13.756;2023-03-01T00:25:29;32.17;;;17.03;;
19804;SDS011;10062;51.052;13.756;2023-03-01T00:28:00;45.23;;;17.47;;
19804;SDS011;10062;51.052;13.756;2023-03-01T00:30:32;37.50;;;17.37;;
19804;SDS011;10062;51.052;13.756;2023-03-01T00:33:04;32.93;;;17.90;;
19804;SDS011;10062;51.052;13.756;2023-03-01T00:35:36;35.33;;;15.90;;
19804;SDS011;10062;51.052;13.756;2023-03-01T00:38:09;33.63;;;17.50;;
19804;SDS011;10062;51.052;13.756;2023-03-01T00:40:41;33.07;;;16.93;;
19804;SDS011;10062;51.052;13.756;2023-03-01T00:43:13;40.37;;;18.37;;
19804;SDS011;10062;51.052;13.756;2023-03-01T00:45:45;35.00;;;17.93;;
19804;SDS011;10062;51.052;13.756;2023-03-01T00:48:16;33.37;;;17.03;;
19804;SDS011;10062;51.052;13.756;2023-03-01T00:50:48;36.97;;;17.40;;
19804;SDS011;10062;51.052;13.756;2023-03-01T00:53:21;36.03;;;18.47;;
19804;SDS011;10062;51.052;13.756;2023-03-01T00:55:53;36.37;;;18.47;;
19804;SDS011;10062;51.052;13.756;2023-03-01T00:58:24;39.47;;;18.77;;
19804;SDS011;10062;51.052;13.756;2023-03-01T01:00:56;35.37;;;18.57;;
19804;SDS011;10062;51.052;13.756;2023-03-01T01:03:28;36.93;;;18.73;;
19804;SDS011;10062;51.052;13.756;2023-03-01T01:06:00;40.93;;;18.47;;
19804;SDS011;10062;51.052;13.756;2023-03-01T01:08:40;37.90;;;18.90;;
19804;SDS011;10062;51.052;13.756;2023-03-01T01:11:12;37.00;;;18.03;;
19804;SDS011;10062;51.052;13.756;2023-03-01T01:13:44;35.00;;;16.03;;
19804;SDS011;10062;51.052;13.756;2023-03-01T01:16:18;31.10;;;15.50;;
19804;SDS011;10062;51.052;13.756;2023-03-01T01:18:50;34.47;;;18.47;;
19804;SDS011;10062;51.052;13.756;2023-03-01T01:21:23;36.50;;;18.77;;
19804;SDS011;10062;51.052;13.756;2023-03-01T01:23:57;35.80;;;17.97;;
19804;SDS011;10062;51.052;13.756;2023-03-01T01:26:29;35.47;;;18.77;;
19804;SDS011;10062;51.052;13.756;2023-03-01T01:29:03;37.30;;;18.10;;
19804;SDS011;10062;51.052;13.756;2023-03-01T01:31:36;32.90;;;17.67;;
19804;SDS011;10062;51.052;13.756;2023-03-01T01:34:12;35.77;;;17.73;;
19804;SDS011;10062;51.052;13.756;2023-03-01T01:36:47;42.63;;;17.90;;
19804;SDS011;10062;51.052;13.756;2023-03-01T01:39:22;33.13;;;15.70;;
19804;SDS011;10062;51.052;13.756;2023-03-01T01:41:54;29.97;;;15.13;;
19804;SDS011;10062;51.052;13.756;2023-03-01T01:44:26;34.87;;;15.57;;
19804;SDS011;10062;51.052;13.756;2023-03-01T01:47:00;31.70;;;17.30;;
19804;SDS011;10062;51.052;13.756;2023-03-01T01:49:35;34.50;;;16.90;;
19804;SDS011;10062;51.052;13.756;2023-03-01T01:52:09;43.07;;;17.97;;
19804;SDS011;10062;51.052;13.756;2023-03-01T01:54:45;33.07;;;17.03;;
19804;SDS011;10062;51.052;13.756;2023-03-01T01:57:21;32.10;;;16.13;;
19804;SDS011;10062;51.052;13.756;2023-03-01T01:59:57;27.93;;;15.43;;
19804;SDS011;10062;51.052;13.756;2023-03-01T02:02:31;33.03;;;17.73;;
19804;SDS011;10062;51.052;13.756;2023-03-01T02:05:06;33.17;;;16.13;;
19804;SDS011;10062;51.052;13.756;2023-03-01T02:07:42;34.60;;;15.70;;
19804;SDS011;10062;51.052;13.756;2023-03-01T02:10:16;40.97;;;17.30;;
19804;SDS011;10062;51.052;13.756;2023-03-01T02:12:48;30.80;;;16.93;;
19804;SDS011;10062;51.052;13.756;2023-03-01T02:15:20;34.90;;;17.30;;
19804;SDS011;10062;51.052;13.756;2023-03-01T02:17:52;29.40;;;15.83;;
19804;SDS011;10062;51.052;13.756;2023-03-01T02:20:27;26.63;;;14.13;;
19804;SDS011;10062;51.052;13.756;2023-03-01T02:23:04;28.03;;;15.30;;
19804;SDS011;10062;51.052;13.756;2023-03-01T02:25:38;28.47;;;14.37;;
19804;SDS011;10062;51.052;13.756;2023-03-01T02:28:21;33.10;;;16.17;;
19804;SDS011;10062;51.052;13.756;2023-03-01T02:31:02;33.17;;;14.50;;
19804;SDS011;10062;51.052;13.756;2023-03-01T02:33:53;34.17;;;15.80;;
19804;SDS011;10062;51.052;13.756;2023-03-01T02:36:26;35.30;;;16.67;;
19804;SDS011;10062;51.052;13.756;2023-03-01T02:39:01;33.03;;;16.40;;
19804;SDS011;10062;51.052;13.756;2023-03-01T02:41:36;33.23;;;16.27;;
19804;SDS011;10062;51.052;13.756;2023-03-01T02:44:10;29.50;;;16.53;;
19804;SDS011;10062;51.052;13.756;2023-03-01T02:46:42;31.77;;;16.63;;
19804;SDS011;10062;51.052;13.756;2023-03-01T02:49:19;33.10;;;17.20;;
19804;SDS011;10062;51.052;13.756;2023-03-01T02:52:08;31.07;;;15.07;;
19804;SDS011;10062;51.052;13.756;2023-03-01T02:54:56;32.27;;;16.20;;
19804;SDS011;10062;51.052;13.756;2023-03-01T02:57:32;32.20;;;16.77;;
19804;SDS011;10062;51.052;13.756;2023-03-01T03:00:07;31.70;;;15.40;;
19804;SDS011;10062;51.052;13.756;2023-03-01T03:02:49;33.57;;;15.70;;
19804;SDS011;10062;51.052;13.756;2023-03-01T03:05:24;40.47;;;18.83;;
19804;SDS011;10062;51.052;13.756;2023-03-01T03:08:01;36.33;;;16.47;;
19804;SDS011;10062;51.052;13.756;2023-03-01T03:10:39;31.50;;;14.40;;
19804;SDS011;10062;51.052;13.756;2023-03-01T03:13:13;31.67;;;16.60;;
19804;SDS011;10062;51.052;13.756;2023-03-01T03:15:48;32.70;;;16.57;;
19804;SDS011;10062;51.052;13.756;2023-03-01T03:18:19;34.70;;;17.13;;
19804;SDS011;10062;51.052;13.756;2023-03-01T03:20:51;29.33;;;15.00;;
19804;SDS011;10062;51.052;13.756;2023-03-01T03:23:24;34.53;;;16.37;;
19804;SDS011;10062;51.052;13.756;2023-03-01T03:25:56;31.77;;;17.00;;
19804;SDS011;10062;51.052;13.756;2023-03-01T03:28:27;36.53;;;16.90;;
19804;SDS011;10062;51.052;13.756;2023-03-01T03:31:02;31.03;;;13.90;;
19804;SDS011;10062;51.052;13.756;2023-03-01T03:33:36;31.43;;;15.37;;
19804;SDS011;10062;51.052;13.756;2023-03-01T03:36:08;32.57;;;16.57;;
19804;SDS011;10062;51.052;13.756;2023-03-01T03:38:43;34.67;;;16.10;;
19804;SDS011;10062;51.052;13.756;2023-03-01T03:41:15;30.73;;;15.37;;
19804;SDS011;10062;51.052;13.756;2023-03-01T03:43:47;27.93;;;14.10;;
19804;SDS011;10062;51.052;13.756;2023-03-01T03:46:20;33.10;;;15.97;;
19804;SDS011;10062;51.052;13.756;2023-03-01T03:48:51;30.97;;;15.63;;
19804;SDS011;10062;51.052;13.756;2023-03-01T03:51:23;34.50;;;16.23;;
19804;SDS011;10062;51.052;13.756;2023-03-01T03:53:55;29.63;;;14.57;;
19804;SDS011;10062;51.052;13.756;2023-03-01T03:56:26;27.93;;;14.83;;
19804;SDS011;10062;51.052;13.756;2023-03-01T03:58:58;33.27;;;15.00;;
19804;SDS011;10062;51.052;13.756;2023-03-01T04:01:31;43.93;;;22.57;;
19804;SDS011;10062;51.052;13.756;2023-03-01T04:04:02;46.93;;;21.13;;
19804;SDS011;10062;51.052;13.756;2023-03-01T04:06:35;43.07;;;20.23;;
19804;SDS011;10062;51.052;13.756;2023-03-01T04:09:06;57.23;;;26.47;;
19804;SDS011;10062;51.052;13.756;2023-03-01T04:11:38;38.37;;;17.90;;
19804;SDS011;10062;51.052;13.756;2023-03-01T04:14:10;32.47;;;15.90;;
19804;SDS011;10062;51.052;13.756;2023-03-01T04:16:43;26.37;;;14.47;;
19804;SDS011;10062;51.052;13.756;2023-03-01T04:19:15;31.07;;;14.60;;
19804;SDS011;10062;51.052;13.756;2023-03-01T04:21:46;28.27;;;12.77;;
19804;SDS011;10062;51.052;13.756;2023-03-01T04:24:18;33.57;;;13.53;;
19804;SDS011;10062;51.052;13.756;2023-03-01T04:26:50;30.60;;;14.07;;
19804;SDS011;10062;51.052;13.756;2023-03-01T04:29:22;32.13;;;16.00;;
19804;SDS011;10062;51.052;13.756;2023-03-01T04:31:54;32.53;;;15.97;;
19804;SDS011;10062;51.052;13.756;2023-03-01T04:34:26;37.20;;;15.53;;
19804;SDS011;10062;51.052;13.756;2023-03-01T04:36:58;30.43;;;15.70;;
19804;SDS011;10062;51.052;13.756;2023-03-01T04:39:30;34.37;;;16.33;;
19804;SDS011;10062;51.052;13.756;2023-03-01T04:42:02;43.53;;;16.30;;
19804;SDS011;10062;51.052;13.756;2023-03-01T04:44:34;38.53;;;17.17;;
19804;SDS011;10062;51.052;13.756;2023-03-01T04:47:07;33.33;;;16.13;;
19804;SDS011;10062;51.052;13.756;2023-03-01T04:49:39;29.23;;;16.20;;
19804;SDS011;10062;51.052;13.756;2023-03-01T04:52:10;27.73;;;13.37;;
19804;SDS011;10062;51.052;13.756;2023-03-01T04:54:42;31.90;;;15.80;;
19804;SDS011;10062;51.052;13.756;2023-03-01T04:57:14;31.80;;;14.67;;
19804;SDS011;10062;51.052;13.756;2023-03-01T04:59:45;30.07;;;14.13;;
19804;SDS011;10062;51.052;13.756;2023-03-01T05:02:18;32.37;;;13.30;;
19804;SDS011;10062;51.052;13.756;2023-03-01T05:04:50;27.57;;;13.47;;
19804;SDS011;10062;51.052;13.756;2023-03-01T05:07:21;32.93;;;16.50;;
19804;SDS011;10062;51.052;13.756;2023-03-01T05:09:55;32.03;;;14.13;;
19804;SDS011;10062;51.052;13.756;2023-03-01T05:12:27;28.57;;;12.37;;
19804;SDS011;10062;51.052;13.756;2023-03-01T05:14:59;32.60;;;14.10;;
19804;SDS011;10062;51.052;13.756;2023-03-01T05:17:31;32.83;;;14.17;;
19804;SDS011;10062;51.052;13.756;2023-03-01T05:20:04;32.90;;;16.33;;
19804;SDS011;10062;51.052;13.756;2023-03-01T05:22:38;36.10;;;16.87;;
19804;SDS011;10062;51.052;13.756;2023-03-01T05:25:10;31.70;;;15.93;;
19804;SDS011;10062;51.052;13.756;2023-03-01T05:27:44;41.17;;;16.57;;
19804;SDS011;10062;51.052;13.756;2023-03-01T05:30:16;29.47;;;13.73;;
19804;SDS011;10062;51.052;13.756;2023-03-01T05:32:50;38.37;;;16.63;;
19804;SDS011;10062;51.052;13.756;2023-03-01T05:35:25;34.63;;;16.83;;
19804;SDS011;10062;51.052;13.756;2023-03-01T05:37:57;35.37;;;15.40;;
19804;SDS011;10062;51.052;13.756;2023-03-01T05:40:29;37.03;;;15.47;;
19804;SDS011;10062;51.052;13.756;2023-03-01T05:43:01;30.33;;;14.43;;
19804;SDS011;10062;51.052;13.756;2023-03-01T05:45:35;30.77;;;13.60;;
19804;SDS011;10062;51.052;13.756;2023-03-01T05:48:09;33.17;;;14.53;;
19804;SDS011;10062;51.052;13.756;2023-03-01T05:50:42;40.00;;;16.50;;
19804;SDS011;10062;51.052;13.756;2023-03-01T05:53:16;32.27;;;15.37;;
19804;SDS011;10062;51.052;13.756;2023-03-01T05:55:51;28.57;;;13.70;;
19804;SDS011;10062;51.052;13.756;2023-03-01T05:58:23;35.10;;;15.93;;
19804;SDS011;10062;51.052;13.756;2023-03-01T06:00:54;30.93;;;14.63;;
19804;SDS011;10062;51.052;13.756;2023-03-01T06:03:27;25.40;;;14.23;;
19804;SDS011;10062;51.052;13.756;2023-03-01T06:05:59;27.60;;;14.60;;
19804;SDS011;10062;51.052;13.756;2023-03-01T06:08:30;35.97;;;14.87;;
19804;SDS011;10062;51.052;13.756;2023-03-01T06:11:02;30.83;;;13.73;;
19804;SDS011;10062;51.052;13.756;2023-03-01T06:13:35;29.03;;;12.93;;
19804;SDS011;10062;51.052;13.756;2023-03-01T06:16:07;31.77;;;14.73;;
19804;SDS011;10062;51.052;13.756;2023-03-01T06:18:41;31.67;;;15.83;;
19804;SDS011;10062;51.052;13.756;2023-03-01T06:21:12;33.30;;;15.03;;
19804;SDS011;10062;51.052;13.756;2023-03-01T06:23:44;29.20;;;15.00;;
19804;SDS011;10062;51.052;13.756;2023-03-01T06:26:16;35.87;;;15.80;;
19804;SDS011;10062;51.052;13.756;2023-03-01T06:28:47;29.27;;;14.07;;
19804;SDS011;10062;51.052;13.756;2023-03-01T06:31:19;32.83;;;14.70;;
19804;SDS011;10062;51.052;13.756;2023-03-01T06:33:52;36.17;;;16.00;;
19804;SDS011;10062;51.052;13.756;2023-03-01T06:36:24;34.47;;;17.17;;
19804;SDS011;10062;51.052;13.756;2023-03-01T06:38:55;36.30;;;14.63;;
19804;SDS011;10062;51.052;13.756;2023-03-01T06:41:27;29.27;;;14.63;;
19804;SDS011;10062;51.052;13.756;2023-03-01T06:43:58;33.40;;;14.77;;
19804;SDS011;10062;51.052;13.756;2023-03-01T06:46:30;33.20;;;15.93;;
19804;SDS011;10062;51.052;13.756;2023-03-01T06:49:04;32.00;;;15.00;;
19804;SDS011;10062;51.052;13.756;2023-03-01T06:51:39;35.80;;;15.87;;
19804;SDS011;10062;51.052;13.756;2023-03-01T06:54:10;35.57;;;16.03;;
19804;SDS011;10062;51.052;13.756;2023-03-01T06:56:42;30.33;;;13.50;;
19804;SDS011;10062;51.052;13.756;2023-03-01T06:59:17;33.17;;;16.73;;
19804;SDS011;10062;51.052;13.756;2023-03-01T07:01:49;34.73;;;18.30;;
19804;SDS011;10062;51.052;13.756;2023-03-01T07:04:22;31.23;;;16.30;;
19804;SDS011;10062;51.052;13.756;2023-03-01T07:06:53;34.77;;;16.03;;
19804;SDS011;10062;51.052;13.756;2023-03-01T07:09:25;29.93;;;15.73;;
19804;SDS011;10062;51.052;13.756;2023-03-01T07:11:57;36.83;;;16.37;;
19804;SDS011;10062;51.052;13.756;2023-03-01T07:14:29;29.23;;;15.00;;
19804;SDS011;10062;51.052;13.756;2023-03-01T07:17:00;31.37;;;15.93;;
19804;SDS011;10062;51.052;13.756;2023-03-01T07:19:34;28.67;;;16.53;;
19804;SDS011;10062;51.052;13.756;2023-03-01T07:22:05;38.20;;;18.20;;
19804;SDS011;10062;51.052;13.756;2023-03-01T07:24:40;32.80;;;16.93;;
19804;SDS011;10062;51.052;13.756;2023-03-01T07:27:12;33.47;;;16.17;;
19804;SDS011;10062;51.052;13.756;2023-03-01T07:29:43;26.03;;;14.03;;
19804;SDS011;10062;51.052;13.756;2023-03-01T07:32:15;27.87;;;15.23;;
19804;SDS011;10062;51.052;13.756;2023-03-01T07:34:48;30.77;;;15.73;;
19804;SDS011;10062;51.052;13.756;2023-03-01T07:37:19;31.77;;;16.90;;
19804;SDS011;10062;51.052;13.756;2023-03-01T07:39:51;32.53;;;17.37;;
19804;SDS011;10062;51.052;13.756;2023-03-01T07:42:23;33.20;;;16.77;;
19804;SDS011;10062;51.052;13.756;2023-03-01T07:44:55;37.67;;;17.70;;
19804;SDS011;10062;51.052;13.756;2023-03-01T07:47:26;29.10;;;16.60;;
19804;SDS011;10062;51.052;13.756;2023-03-01T07:49:59;36.30;;;17.37;;
19804;SDS011;10062;51.052;13.756;2023-03-01T07:52:32;31.77;;;15.83;;
19804;SDS011;10062;51.052;13.756;2023-03-01T07:55:04;31.27;;;16.77;;
19804;SDS011;10062;51.052;13.756;2023-03-01T07:57:37;33.97;;;15.77;;
19804;SDS011;10062;51.052;13.756;2023-03-01T08:00:10;32.13;;;16.17;;
19804;SDS011;10062;51.052;13.756;2023-03-01T08:02:42;32.60;;;16.97;;
19804;SDS011;10062;51.052;13.756;2023-03-01T08:05:15;33.87;;;18.63;;
19804;SDS011;10062;51.052;13.756;2023-03-01T08:07:47;35.87;;;19.27;;
19804;SDS011;10062;51.052;13.756;2023-03-01T08:10:19;30.40;;;18.50;;
19804;SDS011;10062;51.052;13.756;2023-03-01T08:12:51;36.07;;;18.33;;
19804;SDS011;10062;51.052;13.756;2023-03-01T08:15:23;29.43;;;16.50;;
19804;SDS011;10062;51.052;13.756;2023-03-01T08:17:55;33.00;;;18.63;;
19804;SDS011;10062;51.052;13.756;2023-03-01T08:20:28;31.87;;;17.47;;
19804;SDS011;10062;51.052;13.756;2023-03-01T08:22:59;39.03;;;17.97;;
19804;SDS011;10062;51.052;13.756;2023-03-01T08:25:31;35.20;;;17.87;;
19804;SDS011;10062;51.052;13.756;2023-03-01T08:28:03;37.03;;;19.50;;
19804;SDS011;10062;51.052;13.756;2023-03-01T08:30:35;33.17;;;19.60;;
19804;SDS011;10062;51.052;13.756;2023-03-01T08:33:07;32.87;;;19.63;;
19804;SDS011;10062;51.052;13.756;2023-03-01T08:35:40;29.73;;;17.10;;
19804;SDS011;10062;51.052;13.756;2023-03-01T08:38:11;33.07;;;17.53;;
19804;SDS011;10062;51.052;13.756;2023-03-01T08:40:43;30.70;;;18.40;;
19804;SDS011;10062;51.052;13.756;2023-03-01T08:43:15;30.53;;;16.87;;
19804;SDS011;10062;51.052;13.756;2023-03-01T08:45:48;32.20;;;17.17;;
19804;SDS011;10062;51.052;13.756;2023-03-01T08:48:19;25.37;;;16.43;;
19804;SDS011;10062;51.052;13.756;2023-03-01T08:50:52;30.10;;;17.10;;
19804;SDS011;10062;51.052;13.756;2023-03-01T08:53:24;31.43;;;17.77;;
19804;SDS011;10062;51.052;13.756;2023-03-01T08:55:56;29.13;;;18.17;;
19804;SDS011;10062;51.052;13.756;2023-03-01T08:58:31;34.87;;;18.57;;
19804;SDS011;10062;51.052;13.756;2023-03-01T09:01:06;28.90;;;17.90;;
19804;SDS011;10062;51.052;13.756;2023-03-01T09:03:38;25.37;;;17.77;;
19804;SDS011;10062;51.052;13.756;2023-03-01T09:06:11;30.30;;;20.37;;
19804;SDS011;10062;51.052;13.756;2023-03-01T09:08:45;27.23;;;18.87;;
19804;SDS011;10062;51.052;13.756;2023-03-01T09:11:18;26.37;;;18.93;;
19804;SDS011;10062;51.052;13.756;2023-03-01T09:13:52;27.00;;;20.83;;
19804;SDS011;10062;51.052;13.756;2023-03-01T09:16:23;29.90;;;19.33;;
19804;SDS011;10062;51.052;13.756;2023-03-01T09:18:55;28.00;;;19.17;;
19804;SDS011;10062;51.052;13.756;2023-03-01T09:21:28;31.87;;;19.70;;
19804;SDS011;10062;51.052;13.756;2023-03-01T09:23:59;30.20;;;19.97;;
19804;SDS011;10062;51.052;13.756;2023-03-01T09:26:31;28.80;;;19.03;;
19804;SDS011;10062;51.052;13.756;2023-03-01T09:29:03;31.53;;;20.10;;
19804;SDS011;10062;51.052;13.756;2023-03-01T09:31:34;27.53;;;19.60;;
19804;SDS011;10062;51.052;13.756;2023-03-01T09:34:06;26.53;;;19.70;;
19804;SDS011;10062;51.052;13.756;2023-03-01T09:36:39;28.03;;;20.63;;
19804;SDS011;10062;51.052;13.756;2023-03-01T09:39:11;36.73;;;20.23;;
19804;SDS011;10062;51.052;13.756;2023-03-01T09:41:47;26.63;;;19.50;;
19804;SDS011;10062;51.052;13.756;2023-03-01T09:44:27;25.73;;;18.67;;
19804;SDS011;10062;51.052;13.756;2023-03-01T09:47:03;28.80;;;19.93;;
19804;SDS011;10062;51.052;13.756;2023-03-01T09:49:40;28.77;;;19.43;;
19804;SDS011;10062;51.052;13.756;2023-03-01T09:52:21;26.17;;;19.97;;
19804;SDS011;10062;51.052;13.756;2023-03-01T09:54:59;24.80;;;19.87;;
19804;SDS011;10062;51.052;13.756;2023-03-01T09:57:33;24.60;;;18.80;;
19804;SDS011;10062;51.052;13.756;2023-03-01T10:00:17;32.07;;;21.63;;
19804;SDS011;10062;51.052;13.756;2023-03-01T10:02:56;24.00;;;18.90;;
19804;SDS011;10062;51.052;13.756;2023-03-01T10:05:36;30.70;;;19.60;;
19804;SDS011;10062;51.052;13.756;2023-03-01T10:08:23;26.20;;;21.57;;
19804;SDS011;10062;51.052;13.756;2023-03-01T10:11:01;26.53;;;21.83;;
19804;SDS011;10062;51.052;13.756;2023-03-01T10:13:37;25.87;;;20.67;;
19804;SDS011;10062;51.052;13.756;2023-03-01T10:16:21;25.83;;;19.40;;
19804;SDS011;10062;51.052;13.756;2023-03-01T10:18:59;27.07;;;21.03;;
19804;SDS011;10062;51.052;13.756;2023-03-01T10:21:34;28.63;;;20.17;;
19804;SDS011;10062;51.052;13.756;2023-03-01T10:24:13;27.90;;;21.33;;
19804;SDS011;10062;51.052;13.756;2023-03-01T10:26:52;29.67;;;21.13;;
19804;SDS011;10062;51.052;13.756;2023-03-01T10:29:27;28.20;;;21.63;;
19804;SDS011;10062;51.052;13.756;2023-03-01T10:32:05;26.98;;;20.10;;
19804;SDS011;10062;51.052;13.756;2023-03-01T10:34:37;28.77;;;18.60;;
19804;SDS011;10062;51.052;13.756;2023-03-01T10:37:10;27.00;;;21.33;;
19804;SDS011;10062;51.052;13.756;2023-03-01T10:40:00;26.53;;;21.23;;
19804;SDS011;10062;51.052;13.756;2023-03-01T10:42:38;24.17;;;18.83;;
19804;SDS011;10062;51.052;13.756;2023-03-01T10:45:19;26.13;;;20.40;;
19804;SDS011;10062;51.052;13.756;2023-03-01T10:48:10;23.63;;;18.03;;
19804;SDS011;10062;51.052;13.756;2023-03-01T10:50:44;25.17;;;18.33;;
19804;SDS011;10062;51.052;13.756;2023-03-01T10:53:24;27.47;;;19.47;;
19804;SDS011;10062;51.052;13.756;2023-03-01T10:56:01;24.63;;;18.57;;
19804;SDS011;10062;51.052;13.756;2023-03-01T10:58:36;25.47;;;19.30;;
19804;SDS011;10062;51.052;13.756;2023-03-01T11:01:23;21.40;;;17.55;;
19804;SDS011;10062;51.052;13.756;2023-03-01T11:04:08;21.77;;;17.55;;
19804;SDS011;10062;51.052;13.756;2023-03-01T11:06:43;23.20;;;17.20;;
19804;SDS011;10062;51.052;13.756;2023-03-01T11:09:30;24.92;;;17.13;;
19804;SDS011;10062;51.052;13.756;2023-03-01T11:12:13;25.17;;;17.70;;
19804;SDS011;10062;51.052;13.756;2023-03-01T11:14:46;21.27;;;16.13;;
19804;SDS011;10062;51.052;13.756;2023-03-01T11:17:21;17.95;;;14.30;;
19804;SDS011;10062;51.052;13.756;2023-03-01T11:20:02;19.40;;;14.93;;
19804;SDS011;10062;51.052;13.756;2023-03-01T11:22:46;20.60;;;15.20;;
19804;SDS011;10062;51.052;13.756;2023-03-01T11:25:23;20.60;;;15.67;;
19804;SDS011;10062;51.052;13.756;2023-03-01T11:27:58;18.37;;;14.13;;
19804;SDS011;10062;51.052;13.756;2023-03-01T11:30:34;16.53;;;12.30;;
19804;SDS011;10062;51.052;13.756;2023-03-01T11:33:13;18.17;;;13.30;;
19804;SDS011;10062;51.052;13.756;2023-03-01T11:35:50;19.40;;;13.60;;
19804;SDS011;10062;51.052;13.756;2023-03-01T11:38:29;20.00;;;13.43;;
19804;SDS011;10062;51.052;13.756;2023-03-01T11:41:05;20.07;;;12.57;;
19804;SDS011;10062;51.052;13.756;2023-03-01T11:43:43;19.90;;;12.87;;
19804;SDS011;10062;51.052;13.756;2023-03-01T11:46:41;20.87;;;12.67;;
19804;SDS011;10062;51.052;13.756;2023-03-01T11:49:32;18.33;;;12.10;;
19804;SDS011;10062;51.052;13.756;2023-03-01T11:52:25;15.70;;;10.30;;
19804;SDS011;10062;51.052;13.756;2023-03-01T11:55:09;18.33;;;10.23;;
19804;SDS011;10062;51.052;13.756;2023-03-01T11:57:55;18.70;;;11.07;;
19804;SDS011;10062;51.052;13.756;2023-03-01T12:00:53;18.30;;;10.60;;
19804;SDS011;10062;51.052;13.756;2023-03-01T12:03:39;18.37;;;10.57;;
19804;SDS011;10062;51.052;13.756;2023-03-01T12:09:23;17.77;;;10.97;;
19804;SDS011;10062;51.052;13.756;2023-03-01T12:15:20;15.27;;;7.87;;
19804;SDS011;10062;51.052;13.756;2023-03-01T12:18:06;15.10;;;8.63;;
19804;SDS011;10062;51.052;13.756;2023-03-01T12:21:00;20.47;;;11.23;;
19804;SDS011;10062;51.052;13.756;2023-03-01T12:23:54;25.90;;;11.03;;
19804;SDS011;10062;51.052;13.756;2023-03-01T12:26:39;17.47;;;9.60;;
19804;SDS011;10062;51.052;13.756;2023-03-01T12:29:22;19.10;;;11.50;;
19804;SDS011;10062;51.052;13.756;2023-03-01T12:32:06;25.80;;;14.77;;
19804;SDS011;10062;51.052;13.756;2023-03-01T12:34:54;18.03;;;10.07;;
19804;SDS011;10062;51.052;13.756;2023-03-01T12:37:36;27.93;;;13.67;;
19804;SDS011;10062;51.052;13.756;2023-03-01T12:40:28;20.97;;;11.83;;
19804;SDS011;10062;51.052;13.756;2023-03-01T12:43:15;22.13;;;10.77;;
19804;SDS011;10062;51.052;13.756;2023-03-01T12:45:57;17.80;;;10.20;;
19804;SDS011;10062;51.052;13.756;2023-03-01T12:48:40;22.57;;;11.60;;
19804;SDS011;10062;51.052;13.756;2023-03-01T12:51:20;22.67;;;11.87;;
19804;SDS011;10062;51.052;13.756;2023-03-01T12:53:55;21.07;;;11.67;;
19804;SDS011;10062;51.052;13.756;2023-03-01T12:56:30;25.60;;;14.83;;
19804;SDS011;10062;51.052;13.756;2023-03-01T12:59:08;22.73;;;11.67;;
19804;SDS011;10062;51.052;13.756;2023-03-01T13:01:48;22.27;;;11.13;;
19804;SDS011;10062;51.052;13.756;2023-03-01T13:04:29;24.87;;;11.70;;
19804;SDS011;10062;51.052;13.756;2023-03-01T13:07:13;24.87;;;13.40;;
19804;SDS011;10062;51.052;13.756;2023-03-01T13:09:55;24.90;;;12.20;;
19804;SDS011;10062;51.052;13.756;2023-03-01T13:13:00;23.87;;;14.10;;
19804;SDS011;10062;51.052;13.756;2023-03-01T13:15:34;19.10;;;9.93;;
19804;SDS011;10062;51.052;13.756;2023-03-01T13:21:03;21.73;;;13.00;;
19804;SDS011;10062;51.052;13.756;2023-03-01T13:23:37;23.83;;;13.57;;
19804;SDS011;10062;51.052;13.756;2023-03-01T13:26:11;21.90;;;12.27;;
19804;SDS011;10062;51.052;13.756;2023-03-01T13:28:54;24.00;;;12.00;;
19804;SDS011;10062;51.052;13.756;2023-03-01T13:34:41;20.43;;;10.53;;
19804;SDS011;10062;51.052;13.756;2023-03-01T13:37:21;24.33;;;12.47;;
19804;SDS011;10062;51.052;13.756;2023-03-01T13:43:27;23.43;;;11.43;;
19804;SDS011;10062;51.052;13.756;2023-03-01T13:46:01;25.50;;;13.80;;
19804;SDS011;10062;51.052;13.756;2023-03-01T13:48:39;22.63;;;12.37;;
19804;SDS011;10062;51.052;13.756;2023-03-01T13:51:11;21.20;;;11.47;;
19804;SDS011;10062;51.052;13.756;2023-03-01T13:53:43;28.73;;;14.03;;
19804;SDS011;10062;51.052;13.756;2023-03-01T13:56:17;22.27;;;12.60;;
19804;SDS011;10062;51.052;13.756;2023-03-01T13:58:54;21.53;;;13.10;;
19804;SDS011;10062;51.052;13.756;2023-03-01T14:01:32;23.10;;;13.73;;
19804;SDS011;10062;51.052;13.756;2023-03-01T14:04:17;29.20;;;14.90;;
19804;SDS011;10062;51.052;13.756;2023-03-01T14:06:51;23.40;;;13.10;;
19804;SDS011;10062;51.052;13.756;2023-03-01T14:09:24;25.63;;;13.93;;
19804;SDS011;10062;51.052;13.756;2023-03-01T14:15:00;19.00;;;10.87;;
19804;SDS011;10062;51.052;13.756;2023-03-01T14:17:41;23.60;;;14.07;;
19804;SDS011;10062;51.052;13.756;2023-03-01T14:20:37;26.47;;;13.77;;
19804;SDS011;10062;51.052;13.756;2023-03-01T14:23:11;21.80;;;12.07;;
19804;SDS011;10062;51.052;13.756;2023-03-01T14:25:46;25.30;;;14.17;;
19804;SDS011;10062;51.052;13.756;2023-03-01T14:28:20;22.73;;;13.20;;
19804;SDS011;10062;51.052;13.756;2023-03-01T14:30:56;24.50;;;13.73;;
19804;SDS011;10062;51.052;13.756;2023-03-01T14:33:29;22.03;;;12.80;;
19804;SDS011;10062;51.052;13.756;2023-03-01T14:36:04;24.33;;;14.37;;
19804;SDS011;10062;51.052;13.756;2023-03-01T14:38:38;21.70;;;12.47;;
19804;SDS011;10062;51.052;13.756;2023-03-01T14:41:11;17.47;;;8.97;;
19804;SDS011;10062;51.052;13.756;2023-03-01T14:43:46;25.40;;;14.20;;
19804;SDS011;10062;51.052;13.756;2023-03-01T14:46:24;28.07;;;14.67;;
19804;SDS011;10062;51.052;13.756;2023-03-01T14:49:01;28.37;;;12.60;;
19804;SDS011;10062;51.052;13.756;2023-03-01T14:51:36;26.80;;;12.47;;
19804;SDS011;10062;51.052;13.756;2023-03-01T14:54:18;24.07;;;13.53;;
19804;SDS011;10062;51.052;13.756;2023-03-01T14:56:57;28.53;;;14.10;;
19804;SDS011;10062;51.052;13.756;2023-03-01T14:59:30;26.07;;;13.30;;
19804;SDS011;10062;51.052;13.756;2023-03-01T15:02:08;19.30;;;10.87;;
19804;SDS011;10062;51.052;13.756;2023-03-01T15:04:48;23.27;;;12.57;;
19804;SDS011;10062;51.052;13.756;2023-03-01T15:07:22;25.33;;;13.37;;
19804;SDS011;10062;51.052;13.756;2023-03-01T15:09:57;25.60;;;12.07;;
19804;SDS011;10062;51.052;13.756;2023-03-01T15:12:39;23.30;;;12.13;;